PASN/SNP METAR and TAF weather

Enter ICAO airport designator
Station Type Date Time Source
PASN METAR 2019/06/18 11:53 UTC NOAA

PASN 181153Z AUTO 28011KT 4SM BR OVC002 07/06 A3004 RMK AO2 SLP172 T00670061 10078 20067 53006 TSNO


Station Type Date Time Source
PASN Decoded METAR 2019/06/18 11:53 UTC NOAA

ST PAUL ISLAND AIRPORT, AK, United States (PASN) 57-10N 170-13W 9M
Jun 18, 2019 - 07:53 AM EDT / 2019.06.18 1153 UTC
Wind: from the W (280 degrees) at 13 MPH (11 KT):0
Visibility: 4 mile(s):0
Sky conditions: overcast
Weather: mist
Temperature: 44.1 F (6.7 C)
Dew Point: 43.0 F (6.1 C)
Relative Humidity: 95%
Pressure (altimeter): 30.04 in. Hg (1017 hPa)
Pressure tendency: 0.02 inches (0.6 hPa) higher than three hours ago
ob: PASN 181153Z AUTO 28011KT 4SM BR OVC002 07/06 A3004 RMK AO2 SLP172 T00670061 10078 20067 53006 TSNO
cycle: 12

Station Type Date Time Source
PASN TAF 2019/06/18 12:39 UTC NOAA

TAF PASN 181135Z 1812/1912 29011KT 1SM BR OVC002
TEMPO 1812/1816 1/2SM FG
FM182300 28011KT P6SM OVC007
FM190500 30010KT 1/2SM FG OVC002

Example: see airport list